createdAt,value
2018-06-13T00:04:17.606Z,13.60
2018-06-13T00:09:21.713Z,11.27
2018-06-13T00:14:25.742Z,11.87
2018-06-13T00:19:29.577Z,12.23
2018-06-13T00:24:33.377Z,11.10
2018-06-13T00:29:37.212Z,13.23
2018-06-13T00:34:41.013Z,11.07
2018-06-13T00:39:44.818Z,10.47
2018-06-13T00:44:48.850Z,11.07
2018-06-13T00:49:52.705Z,12.53
2018-06-13T00:54:56.508Z,11.90
2018-06-13T01:00:00.561Z,14.00
2018-06-13T01:05:04.366Z,13.20
2018-06-13T01:10:08.168Z,12.73
2018-06-13T01:15:11.982Z,11.97
2018-06-13T01:20:16.625Z,13.22
2018-06-13T01:25:20.691Z,11.13
2018-06-13T01:30:24.754Z,11.97
2018-06-13T01:35:28.545Z,8.57
2018-06-13T01:40:32.324Z,8.97
2018-06-13T01:45:36.358Z,9.53
2018-06-13T01:50:53.398Z,7.03
2018-06-13T01:55:57.495Z,6.83
2018-06-13T02:01:01.277Z,6.40
2018-06-13T02:06:05.079Z,8.17
2018-06-13T02:11:09.171Z,6.87
2018-06-13T02:16:12.978Z,8.80
2018-06-13T02:21:17.014Z,7.03
2018-06-13T02:26:20.806Z,6.37
2018-06-13T02:31:24.602Z,9.07
2018-06-13T02:36:28.411Z,6.72
2018-06-13T02:41:32.221Z,6.50
2018-06-13T02:46:35.997Z,7.30
2018-06-13T02:51:39.801Z,6.83
2018-06-13T02:56:43.597Z,8.20
2018-06-13T03:01:47.392Z,7.40
2018-06-13T03:06:51.182Z,6.57
2018-06-13T03:11:55.237Z,9.00
2018-06-13T03:16:59.289Z,6.07
2018-06-13T03:22:03.538Z,8.00
2018-06-13T03:27:07.304Z,8.10
2018-06-13T03:32:11.090Z,10.03
2018-06-13T03:37:14.861Z,9.10
2018-06-13T03:42:18.645Z,8.63
2018-06-13T03:47:22.672Z,8.93
2018-06-13T03:52:26.686Z,9.17
2018-06-13T03:57:30.464Z,9.23
2018-06-13T04:02:34.241Z,9.90
2018-06-13T04:07:38.012Z,9.73
2018-06-13T04:12:42.067Z,9.30
2018-06-13T04:17:45.800Z,7.50
2018-06-13T04:22:49.570Z,8.53
2018-06-13T04:27:53.332Z,7.57
2018-06-13T04:32:57.346Z,8.40
2018-06-13T04:38:01.357Z,6.63
2018-06-13T04:43:05.548Z,6.30
2018-06-13T04:48:09.348Z,6.77
2018-06-13T04:53:13.253Z,7.40
2018-06-13T04:58:17.056Z,7.20
2018-06-13T05:03:20.816Z,6.67
2018-06-13T05:08:24.593Z,8.30
2018-06-13T05:13:28.440Z,7.60
2018-06-13T05:18:32.826Z,9.27
2018-06-13T05:23:37.805Z,12.17
2018-06-13T05:28:41.967Z,10.20
2018-06-13T05:33:45.937Z,8.30
2018-06-13T05:38:52.757Z,9.17
2018-06-13T05:43:56.948Z,10.43
2018-06-13T05:49:00.724Z,10.83
2018-06-13T05:54:04.529Z,12.60
2018-06-13T05:59:08.320Z,12.00
2018-06-13T06:04:12.147Z,13.07
2018-06-13T06:09:16.167Z,8.20
2018-06-13T06:14:19.964Z,11.18
2018-06-13T06:19:23.767Z,8.63
2018-06-13T06:24:27.555Z,8.67
2018-06-13T06:29:31.336Z,5.33
2018-06-13T06:34:35.413Z,6.83
2018-06-13T06:39:39.185Z,5.83
2018-06-13T06:44:42.961Z,5.73
2018-06-13T06:49:46.733Z,5.65
2018-06-13T06:54:50.735Z,4.83
2018-06-13T06:59:54.504Z,5.43
2018-06-13T07:04:58.511Z,7.23
2018-06-13T07:10:02.302Z,7.80
2018-06-13T07:15:06.313Z,6.00
2018-06-13T07:20:10.116Z,4.67
2018-06-13T07:25:13.879Z,4.13
2018-06-13T07:30:17.740Z,3.87
2018-06-13T07:35:21.519Z,2.70
2018-06-13T07:40:25.590Z,4.40
2018-06-13T07:45:29.375Z,3.27
2018-06-13T07:50:33.145Z,3.03
2018-06-13T07:55:37.148Z,4.67
2018-06-13T08:00:40.917Z,6.63
2018-06-13T08:05:44.720Z,3.30
2018-06-13T08:10:48.759Z,4.62
2018-06-13T08:15:52.554Z,6.27
2018-06-13T08:20:56.316Z,4.03
2018-06-13T08:26:00.144Z,5.37
2018-06-13T08:31:04.112Z,4.57
2018-06-13T08:36:08.244Z,5.13
2018-06-13T08:41:12.264Z,4.70
2018-06-13T08:46:16.277Z,5.33
2018-06-13T08:51:20.040Z,4.73
2018-06-13T08:56:23.806Z,4.87
2018-06-13T09:01:27.806Z,5.58
2018-06-13T09:06:31.567Z,5.00
2018-06-13T09:11:36.279Z,5.13
2018-06-13T09:16:40.055Z,8.70
2018-06-13T09:21:43.845Z,5.20
2018-06-13T09:26:47.851Z,4.90
2018-06-13T09:31:51.616Z,3.93
2018-06-13T09:36:55.617Z,9.63
2018-06-13T09:42:01.818Z,5.77
2018-06-13T09:47:06.897Z,6.17
2018-06-13T09:52:09.586Z,10.03
2018-06-13T09:57:13.521Z,9.93
2018-06-13T10:02:17.374Z,9.20
2018-06-13T10:07:21.070Z,8.23
2018-06-13T10:12:24.839Z,10.05
2018-06-13T10:17:28.608Z,7.87
2018-06-13T10:22:32.392Z,6.13
2018-06-13T10:27:40.623Z,4.23
2018-06-13T10:32:44.612Z,3.83
2018-06-13T10:37:48.729Z,4.30
2018-06-13T10:42:52.511Z,6.43
2018-06-13T10:47:56.299Z,4.67
2018-06-13T10:53:00.078Z,3.33
2018-06-13T10:58:03.883Z,4.77
2018-06-13T11:03:07.885Z,5.63
2018-06-13T11:08:11.727Z,5.97
2018-06-13T11:13:15.505Z,5.20
2018-06-13T11:18:19.277Z,5.40
2018-06-13T11:23:23.099Z,6.13
2018-06-13T11:28:27.084Z,7.37
2018-06-13T11:33:31.093Z,7.20
2018-06-13T11:38:34.868Z,6.63
2018-06-13T11:43:38.904Z,7.00
2018-06-13T11:48:42.672Z,5.90
2018-06-13T11:53:46.655Z,7.40
2018-06-13T11:58:50.444Z,7.83
2018-06-13T12:03:54.429Z,7.10
2018-06-13T12:08:58.437Z,5.83
2018-06-13T12:14:02.228Z,10.13
2018-06-13T12:19:06.028Z,4.50
2018-06-13T12:24:09.795Z,5.30
2018-06-13T12:29:13.813Z,5.03
2018-06-13T12:34:17.693Z,6.37
2018-06-13T12:39:21.737Z,6.97
2018-06-13T12:44:25.512Z,5.63
2018-06-13T12:49:29.276Z,4.20
2018-06-13T12:54:33.272Z,4.33
2018-06-13T12:59:37.298Z,5.10
2018-06-13T13:04:41.374Z,5.13
2018-06-13T13:09:45.094Z,4.50
2018-06-13T13:14:49.150Z,4.47
2018-06-13T13:19:52.931Z,5.80
2018-06-13T13:24:56.908Z,3.97
2018-06-13T13:30:00.930Z,5.07
2018-06-13T13:35:04.941Z,4.90
2018-06-13T13:40:08.701Z,4.87
2018-06-13T13:45:12.497Z,4.10
2018-06-13T13:50:17.057Z,5.00
2018-06-13T13:55:20.832Z,7.30
2018-06-13T14:00:24.809Z,4.60
2018-06-13T14:05:28.912Z,8.23
2018-06-13T14:10:32.912Z,4.33
2018-06-13T14:15:36.699Z,4.73
2018-06-13T14:20:40.476Z,5.27
2018-06-13T14:25:44.269Z,4.23
2018-06-13T14:30:48.274Z,6.20
2018-06-13T14:35:52.160Z,6.23
2018-06-13T14:40:55.937Z,8.13
2018-06-13T14:45:59.721Z,4.87
2018-06-13T14:51:03.489Z,4.70
2018-06-13T14:56:13.233Z,6.63
2018-06-13T15:01:17.027Z,4.03
2018-06-13T15:06:21.239Z,5.17
2018-06-13T15:11:25.026Z,6.23
2018-06-13T15:16:28.817Z,4.70
2018-06-13T15:21:32.602Z,4.90
2018-06-13T15:26:36.820Z,3.73
2018-06-13T15:31:40.833Z,6.60
2018-06-13T15:36:44.614Z,3.37
2018-06-13T15:41:48.372Z,2.80
2018-06-13T15:46:52.161Z,7.13
2018-06-13T15:51:56.165Z,4.43
2018-06-13T15:56:59.958Z,5.37
2018-06-13T16:02:03.728Z,6.27
2018-06-13T16:07:07.493Z,4.00
2018-06-13T16:12:11.278Z,3.87
2018-06-13T16:17:15.060Z,4.77
2018-06-13T16:22:18.848Z,3.57
2018-06-13T16:27:22.626Z,3.40
2018-06-13T16:32:26.424Z,6.53
2018-06-13T16:37:30.295Z,5.43
2018-06-13T16:42:34.071Z,4.70
2018-06-13T16:47:37.877Z,5.33
2018-06-13T16:52:59.071Z,2.83
2018-06-13T16:58:02.853Z,5.73
2018-06-13T17:03:06.702Z,6.03
2018-06-13T17:08:10.530Z,5.30
2018-06-13T17:13:14.345Z,5.70
2018-06-13T17:18:18.170Z,3.27
2018-06-13T17:23:22.032Z,3.23
2018-06-13T17:28:25.855Z,3.53
2018-06-13T17:33:30.103Z,6.07
2018-06-13T17:38:33.905Z,4.57
2018-06-13T17:43:37.732Z,5.33
2018-06-13T17:48:41.569Z,4.70
2018-06-13T17:53:45.403Z,5.37
2018-06-13T17:58:49.222Z,4.37
2018-06-13T18:03:53.085Z,3.27
2018-06-13T18:08:56.857Z,5.80
2018-06-13T18:14:00.660Z,6.37
2018-06-13T18:19:04.569Z,3.87
2018-06-13T18:24:08.614Z,4.73
2018-06-13T18:29:12.494Z,6.50
2018-06-13T18:34:16.927Z,3.33
2018-06-13T18:39:20.729Z,6.97
2018-06-13T18:44:24.560Z,4.37
2018-06-13T18:49:28.413Z,4.07
2018-06-13T18:54:32.242Z,5.47
2018-06-13T18:59:36.052Z,6.30
2018-06-13T19:04:39.883Z,4.20
2018-06-13T19:09:43.705Z,3.10
2018-06-13T19:14:47.517Z,5.13
2018-06-13T19:19:51.765Z,3.33
2018-06-13T19:24:55.832Z,3.80
2018-06-13T19:29:59.945Z,4.03
2018-06-13T19:35:03.786Z,3.93
2018-06-13T19:40:07.609Z,5.47
2018-06-13T19:45:11.440Z,5.10
2018-06-13T19:50:15.464Z,5.58
2018-06-13T19:55:24.838Z,6.77
2018-06-13T20:00:28.652Z,4.37
2018-06-13T20:05:38.274Z,4.93
2018-06-13T20:10:43.284Z,4.93
2018-06-13T20:15:53.106Z,5.70
2018-06-13T20:20:56.904Z,3.43
2018-06-13T20:26:06.439Z,6.57
2018-06-13T20:31:14.410Z,6.87
2018-06-13T20:36:18.169Z,6.67
2018-06-13T20:41:21.984Z,6.57
2018-06-13T20:46:26.038Z,5.10
2018-06-13T20:51:30.184Z,8.47
2018-06-13T20:56:33.986Z,7.27
2018-06-13T21:01:38.043Z,6.30
2018-06-13T21:06:42.475Z,5.33
2018-06-13T21:11:46.299Z,6.40
2018-06-13T21:16:50.120Z,4.50
2018-06-13T21:21:53.951Z,6.40
2018-06-13T21:26:57.848Z,6.37
2018-06-13T21:32:01.860Z,4.93
2018-06-13T21:37:05.692Z,5.47
2018-06-13T21:42:09.706Z,5.73
2018-06-13T21:47:14.323Z,5.47
2018-06-13T21:52:18.233Z,6.53
2018-06-13T21:57:22.284Z,7.07
2018-06-13T22:02:26.344Z,4.70
2018-06-13T22:07:30.168Z,5.10
2018-06-13T22:12:34.219Z,6.57
2018-06-13T22:17:38.024Z,4.73
2018-06-13T22:23:45.306Z,5.73
2018-06-13T22:28:49.373Z,11.27
2018-06-13T22:33:53.180Z,6.87
2018-06-13T22:38:56.984Z,8.47
2018-06-13T22:44:00.793Z,5.40
2018-06-13T22:49:04.845Z,5.00
2018-06-13T22:54:08.640Z,5.27
2018-06-13T22:59:12.701Z,6.03
2018-06-13T23:04:16.548Z,5.85
2018-06-13T23:09:20.537Z,7.70
2018-06-13T23:14:24.341Z,6.20
2018-06-13T23:19:28.211Z,5.43
2018-06-13T23:24:31.990Z,5.87
2018-06-13T23:29:36.000Z,5.67
2018-06-13T23:34:39.776Z,7.97
2018-06-13T23:39:43.552Z,7.30
2018-06-13T23:44:47.327Z,6.28
2018-06-13T23:49:51.145Z,6.20
2018-06-13T23:54:55.189Z,6.93
2018-06-13T23:59:58.970Z,7.83
